createdAt,value
2019-02-23T00:01:36.419Z,28.87
2019-02-23T00:04:07.017Z,31.27
2019-02-23T00:06:37.617Z,21.67
2019-02-23T00:09:08.514Z,31.30
2019-02-23T00:11:39.341Z,17.83
2019-02-23T00:14:09.924Z,26.67
2019-02-23T00:16:40.451Z,23.60
2019-02-23T00:19:11.022Z,24.40
2019-02-23T00:21:41.564Z,28.40
2019-02-23T00:24:12.062Z,22.70
2019-02-23T00:26:42.666Z,22.30
2019-02-23T00:29:13.462Z,25.13
2019-02-23T00:31:44.366Z,27.27
2019-02-23T00:34:15.072Z,18.37
2019-02-23T00:36:45.952Z,20.63
2019-02-23T00:39:16.515Z,16.53
2019-02-23T00:41:47.009Z,18.83
2019-02-23T00:44:17.594Z,18.93
2019-02-23T00:46:48.112Z,19.53
2019-02-23T00:49:18.612Z,22.13
2019-02-23T00:51:51.708Z,21.77
2019-02-23T00:54:21.320Z,23.37
2019-02-23T00:56:51.803Z,28.80
2019-02-23T00:59:22.318Z,30.33
2019-02-23T01:01:52.858Z,31.40
2019-02-23T01:04:23.324Z,29.30
2019-02-23T01:06:54.100Z,33.10
2019-02-23T01:09:24.680Z,29.77
2019-02-23T01:11:55.303Z,27.13
2019-02-23T01:14:26.831Z,23.80
2019-02-23T01:16:57.308Z,26.63
2019-02-23T01:19:27.758Z,24.07
2019-02-23T01:21:58.255Z,22.13
2019-02-23T01:24:29.012Z,20.93
2019-02-23T01:26:59.680Z,22.40
2019-02-23T01:29:30.212Z,14.47
2019-02-23T01:32:01.848Z,21.93
2019-02-23T01:34:32.354Z,22.80
2019-02-23T01:37:02.801Z,22.87
2019-02-23T01:39:33.386Z,16.30
2019-02-23T01:42:03.828Z,22.60
2019-02-23T01:44:34.324Z,15.10
2019-02-23T01:47:04.830Z,23.27
2019-02-23T01:49:35.322Z,22.63
2019-02-23T01:52:05.728Z,17.33
2019-02-23T01:54:36.187Z,18.87
2019-02-23T01:57:06.805Z,20.40
2019-02-23T01:59:37.353Z,22.97
2019-02-23T02:02:08.128Z,22.63
2019-02-23T02:04:38.817Z,23.37
2019-02-23T02:07:09.408Z,20.27
2019-02-23T02:09:40.012Z,24.33
2019-02-23T02:12:11.199Z,12.87
2019-02-23T02:14:41.848Z,20.27
2019-02-23T02:17:12.612Z,21.37
2019-02-23T02:19:43.175Z,16.17
2019-02-23T02:22:13.639Z,23.13
2019-02-23T02:24:44.212Z,23.73
2019-02-23T02:27:14.706Z,23.97
2019-02-23T02:29:45.224Z,24.87
2019-02-23T02:32:15.765Z,23.93
2019-02-23T02:34:46.206Z,26.43
2019-02-23T02:37:16.763Z,22.33
2019-02-23T02:39:47.306Z,22.40
2019-02-23T02:42:17.782Z,24.77
2019-02-23T02:44:48.304Z,26.80
2019-02-23T02:47:19.992Z,28.03
2019-02-23T02:49:50.963Z,24.03
2019-02-23T02:52:22.509Z,28.13
2019-02-23T02:54:53.050Z,27.23
2019-02-23T02:57:23.522Z,26.77
2019-02-23T02:59:54.008Z,23.40
2019-02-23T03:02:24.440Z,24.33
2019-02-23T03:04:54.994Z,31.27
2019-02-23T03:07:25.497Z,26.70
2019-02-23T03:09:55.980Z,23.90
2019-02-23T03:12:26.418Z,28.23
2019-02-23T03:14:56.927Z,28.27
2019-02-23T03:17:27.421Z,27.67
2019-02-23T03:19:57.882Z,30.27
2019-02-23T03:22:28.390Z,25.93
2019-02-23T03:24:58.929Z,27.33
2019-02-23T03:27:29.506Z,27.47
2019-02-23T03:30:00.022Z,24.77
2019-02-23T03:32:30.582Z,29.20
2019-02-23T03:35:01.168Z,32.07
2019-02-23T03:37:31.949Z,24.77
2019-02-23T03:40:02.419Z,33.60
2019-02-23T03:42:32.874Z,33.40
2019-02-23T03:45:03.510Z,28.50
2019-02-23T03:47:34.002Z,29.40
2019-02-23T03:50:04.592Z,30.03
2019-02-23T03:52:35.104Z,31.03
2019-02-23T03:55:05.864Z,25.77
2019-02-23T03:57:36.291Z,29.40
2019-02-23T04:00:07.931Z,31.63
2019-02-23T04:02:38.522Z,27.80
2019-02-23T04:05:09.076Z,28.93
2019-02-23T04:07:39.540Z,30.47
2019-02-23T04:10:10.166Z,27.87
2019-02-23T04:12:40.787Z,26.20
2019-02-23T04:15:11.423Z,25.80
2019-02-23T04:17:42.021Z,32.17
2019-02-23T04:20:12.416Z,19.47
2019-02-23T04:22:42.954Z,36.10
2019-02-23T04:25:13.495Z,26.37
2019-02-23T04:27:45.811Z,32.87
2019-02-23T04:30:16.301Z,25.47
2019-02-23T04:32:46.794Z,26.33
2019-02-23T04:35:17.234Z,32.10
2019-02-23T04:37:47.756Z,26.90
2019-02-23T04:40:18.262Z,28.03
2019-02-23T04:42:48.770Z,25.67
2019-02-23T04:45:19.242Z,24.63
2019-02-23T04:47:49.681Z,32.37
2019-02-23T04:50:20.133Z,25.03
2019-02-23T04:52:50.731Z,23.10
2019-02-23T04:55:21.289Z,27.20
2019-02-23T04:57:51.799Z,27.10
2019-02-23T05:00:22.341Z,26.67
2019-02-23T05:02:52.781Z,24.23
2019-02-23T05:05:23.497Z,27.30
2019-02-23T05:07:53.958Z,28.27
2019-02-23T05:10:24.424Z,25.43
2019-02-23T05:12:54.992Z,26.10
2019-02-23T05:15:25.513Z,29.10
2019-02-23T05:17:55.998Z,30.57
2019-02-23T05:20:26.512Z,27.30
2019-02-23T05:22:57.082Z,25.00
2019-02-23T05:25:27.537Z,29.57
2019-02-23T05:27:58.194Z,27.53
2019-02-23T05:30:28.699Z,24.27
2019-02-23T05:32:59.200Z,26.23
2019-02-23T05:35:29.766Z,28.27
2019-02-23T05:38:00.324Z,27.13
2019-02-23T05:40:30.884Z,24.93
2019-02-23T05:43:01.579Z,22.67
2019-02-23T05:45:32.131Z,30.93
2019-02-23T05:48:02.780Z,25.90
2019-02-23T05:50:33.345Z,29.00
2019-02-23T05:53:03.849Z,25.33
2019-02-23T05:55:34.377Z,27.57
2019-02-23T05:58:04.818Z,24.37
2019-02-23T06:00:35.312Z,20.80
2019-02-23T06:03:05.802Z,31.40
2019-02-23T06:05:36.334Z,26.83
2019-02-23T06:08:06.839Z,34.80
2019-02-23T06:10:37.387Z,33.20
2019-02-23T06:13:07.857Z,38.07
2019-02-23T06:15:38.354Z,40.50
2019-02-23T06:18:08.852Z,36.10
2019-02-23T06:20:39.413Z,30.70
2019-02-23T06:23:09.893Z,35.77
2019-02-23T06:25:40.473Z,37.33
2019-02-23T06:28:10.998Z,37.17
2019-02-23T06:30:41.595Z,35.43
2019-02-23T06:33:12.157Z,44.30
2019-02-23T06:35:42.693Z,40.07
2019-02-23T06:38:13.694Z,53.40
2019-02-23T06:40:44.171Z,51.23
2019-02-23T06:43:14.616Z,46.27
2019-02-23T06:45:45.312Z,42.80
2019-02-23T06:48:15.770Z,41.07
2019-02-23T06:50:46.517Z,36.07
2019-02-23T06:53:17.023Z,29.97
2019-02-23T06:55:47.665Z,31.23
2019-02-23T06:58:18.103Z,38.63
2019-02-23T07:00:48.557Z,38.10
2019-02-23T07:03:19.169Z,34.17
2019-02-23T07:05:50.465Z,37.63
2019-02-23T07:08:20.917Z,42.93
2019-02-23T07:10:51.378Z,41.23
2019-02-23T07:13:25.120Z,43.20
2019-02-23T07:15:55.549Z,32.30
2019-02-23T07:18:26.117Z,31.20
2019-02-23T07:20:56.626Z,40.67
2019-02-23T07:23:27.227Z,36.27
2019-02-23T07:25:57.740Z,32.63
2019-02-23T07:28:28.269Z,37.43
2019-02-23T07:30:58.931Z,30.63
2019-02-23T07:33:32.860Z,31.63
2019-02-23T07:36:01.997Z,29.13
2019-02-23T07:38:35.456Z,27.73
2019-02-23T07:41:05.267Z,36.70
2019-02-23T07:43:35.812Z,60.43
2019-02-23T07:46:07.762Z,74.63
2019-02-23T07:48:38.447Z,40.07
2019-02-23T07:51:09.145Z,32.40
2019-02-23T07:53:39.748Z,36.77
2019-02-23T07:56:11.291Z,24.30
2019-02-23T07:58:41.878Z,28.87
2019-02-23T08:01:12.498Z,27.57
2019-02-23T08:03:42.973Z,33.37
2019-02-23T08:06:13.541Z,42.90
2019-02-23T08:08:44.235Z,29.67
2019-02-23T08:11:16.160Z,40.70
2019-02-23T08:13:46.723Z,36.73
2019-02-23T08:16:17.381Z,32.40
2019-02-23T08:18:48.361Z,35.93
2019-02-23T08:21:18.834Z,40.83
2019-02-23T08:23:49.369Z,31.27
2019-02-23T08:26:20.973Z,30.70
2019-02-23T08:28:51.542Z,35.70
2019-02-23T08:31:23.607Z,39.33
2019-02-23T08:33:54.100Z,31.37
2019-02-23T08:36:24.820Z,29.53
2019-02-23T08:38:55.489Z,44.60
2019-02-23T08:41:26.113Z,38.07
2019-02-23T08:43:57.039Z,36.63
2019-02-23T08:46:27.546Z,38.50
2019-02-23T08:48:58.081Z,28.93
2019-02-23T08:51:28.658Z,31.20
2019-02-23T08:53:59.163Z,28.73
2019-02-23T08:56:31.069Z,24.40
2019-02-23T08:59:01.718Z,25.73
2019-02-23T09:01:32.431Z,27.40
2019-02-23T09:04:04.966Z,23.70
2019-02-23T09:06:35.477Z,26.87
2019-02-23T09:09:08.248Z,22.80
2019-02-23T09:11:42.903Z,26.57
2019-02-23T09:14:13.783Z,34.47
2019-02-23T09:16:44.387Z,28.47
2019-02-23T09:19:14.988Z,21.60
2019-02-23T09:21:45.525Z,29.67
2019-02-23T09:24:19.367Z,19.00
2019-02-23T09:26:49.570Z,15.63
2019-02-23T09:29:20.322Z,23.40
2019-02-23T09:31:50.843Z,24.30
2019-02-23T09:34:21.663Z,20.33
2019-02-23T09:36:52.297Z,26.03
2019-02-23T09:39:22.947Z,19.23
2019-02-23T09:41:53.609Z,19.37
2019-02-23T09:44:24.234Z,13.80
2019-02-23T09:46:54.842Z,10.33
2019-02-23T09:49:26.191Z,10.13
2019-02-23T09:51:57.368Z,9.40
2019-02-23T09:54:30.650Z,8.97
2019-02-23T09:57:00.737Z,12.37
2019-02-23T09:59:31.372Z,11.53
2019-02-23T10:02:02.173Z,13.73
2019-02-23T10:04:33.192Z,24.57
2019-02-23T10:07:03.797Z,14.60
2019-02-23T10:09:34.429Z,16.47
2019-02-23T10:12:04.978Z,13.30
2019-02-23T10:14:35.613Z,19.90
2019-02-23T10:17:06.273Z,13.87
2019-02-23T10:19:36.851Z,16.67
2019-02-23T10:22:07.369Z,16.10
2019-02-23T10:24:37.979Z,16.73
2019-02-23T10:27:08.793Z,19.27
2019-02-23T10:29:41.481Z,16.87
2019-02-23T10:32:12.051Z,14.27
2019-02-23T10:34:43.775Z,13.53
2019-02-23T10:37:14.521Z,16.37
2019-02-23T10:39:46.235Z,16.50
2019-02-23T10:42:16.799Z,18.10
2019-02-23T10:44:47.351Z,18.20
2019-02-23T10:47:17.890Z,20.97
2019-02-23T10:49:49.473Z,15.03
2019-02-23T10:52:21.278Z,12.70
2019-02-23T10:54:52.969Z,14.63
2019-02-23T10:57:24.568Z,17.40
2019-02-23T10:59:55.136Z,19.87
2019-02-23T11:02:26.277Z,20.43
2019-02-23T11:04:57.103Z,18.93
2019-02-23T11:07:27.816Z,14.70
2019-02-23T11:09:58.458Z,18.37
2019-02-23T11:12:29.239Z,22.57
2019-02-23T11:14:59.838Z,15.87
2019-02-23T11:17:30.769Z,20.50
2019-02-23T11:20:01.319Z,14.07
2019-02-23T11:22:33.719Z,19.40
2019-02-23T11:25:04.534Z,16.47
2019-02-23T11:27:35.103Z,19.63
2019-02-23T11:30:07.601Z,17.47
2019-02-23T11:32:38.273Z,18.40
2019-02-23T11:35:09.616Z,20.20
2019-02-23T11:37:42.771Z,16.93
2019-02-23T11:40:13.511Z,16.83
2019-02-23T11:42:44.140Z,17.57
2019-02-23T11:45:14.776Z,19.80
2019-02-23T11:47:45.398Z,18.10
2019-02-23T11:50:16.172Z,15.40
2019-02-23T11:52:46.671Z,12.50
2019-02-23T11:55:18.854Z,12.17
2019-02-23T11:57:49.558Z,16.73
2019-02-23T12:00:20.102Z,23.43
2019-02-23T12:02:52.753Z,15.93
2019-02-23T12:05:22.880Z,16.17
2019-02-23T12:07:53.622Z,12.03
2019-02-23T12:10:24.251Z,16.63
2019-02-23T12:12:54.949Z,12.73
2019-02-23T12:15:25.430Z,17.37
2019-02-23T12:17:56.001Z,21.57
2019-02-23T12:20:26.635Z,17.97
2019-02-23T12:22:57.204Z,20.17
2019-02-23T12:25:27.763Z,15.77
2019-02-23T12:27:59.482Z,16.47
2019-02-23T12:30:32.552Z,18.60
2019-02-23T12:33:02.170Z,13.50
2019-02-23T12:35:33.882Z,18.30
2019-02-23T12:38:04.581Z,17.00
2019-02-23T12:40:35.155Z,17.63
2019-02-23T12:43:05.742Z,16.77
2019-02-23T12:45:36.334Z,15.53
2019-02-23T12:48:07.007Z,16.37
2019-02-23T12:50:37.523Z,15.93
2019-02-23T12:53:08.006Z,14.37
2019-02-23T12:55:38.532Z,13.23
2019-02-23T12:58:09.105Z,18.57
2019-02-23T13:00:39.640Z,20.77
2019-02-23T13:03:11.300Z,14.10
2019-02-23T13:05:43.188Z,20.87
2019-02-23T13:08:14.038Z,15.83
2019-02-23T13:10:44.940Z,21.83
2019-02-23T13:14:11.517Z,20.97
2019-02-23T13:17:16.907Z,15.77
2019-02-23T13:20:40.509Z,15.37
2019-02-23T13:23:30.380Z,16.40
2019-02-23T13:26:28.022Z,18.73
2019-02-23T13:29:42.712Z,16.70
2019-02-23T13:32:41.050Z,19.67
2019-02-23T13:35:42.551Z,18.97
2019-02-23T13:38:49.420Z,13.60
2019-02-23T13:41:57.798Z,14.73
2019-02-23T13:45:05.856Z,17.70
2019-02-23T13:48:17.842Z,15.83
2019-02-23T13:51:50.470Z,17.27
2019-02-23T13:54:39.192Z,18.70
2019-02-23T13:57:55.393Z,16.50
2019-02-23T14:01:13.249Z,14.93
2019-02-23T14:04:23.604Z,14.20
2019-02-23T14:07:40.869Z,18.97
2019-02-23T14:11:04.561Z,18.20
2019-02-23T14:13:56.595Z,16.77
2019-02-23T14:16:46.383Z,16.77
2019-02-23T14:19:46.114Z,19.30
2019-02-23T14:23:02.541Z,18.70
2019-02-23T14:26:16.826Z,15.47
2019-02-23T14:29:27.237Z,25.73
2019-02-23T14:32:38.937Z,20.47
2019-02-23T14:35:41.789Z,29.40
2019-02-23T14:38:54.921Z,22.27
2019-02-23T14:41:49.866Z,17.40
2019-02-23T14:44:55.319Z,20.47
2019-02-23T14:48:04.093Z,29.93
2019-02-23T14:51:20.962Z,20.00
2019-02-23T14:54:45.554Z,23.87
2019-02-23T14:58:12.191Z,24.70
2019-02-23T15:01:19.772Z,29.77
2019-02-23T15:04:55.952Z,23.97
2019-02-23T15:08:02.540Z,18.80
2019-02-23T15:11:12.410Z,23.63
2019-02-23T15:14:26.353Z,22.33
2019-02-23T15:17:49.955Z,20.83
2019-02-23T15:20:52.440Z,35.00
2019-02-23T15:23:35.881Z,21.90
2019-02-23T15:26:27.690Z,27.80
2019-02-23T15:29:34.745Z,22.57
2019-02-23T15:32:54.598Z,23.73
2019-02-23T15:36:05.541Z,24.67
2019-02-23T15:38:55.686Z,28.87
2019-02-23T15:41:55.360Z,25.27
2019-02-23T15:45:18.581Z,20.97
2019-02-23T15:48:26.494Z,28.13
2019-02-23T15:50:57.239Z,31.23
2019-02-23T15:53:27.904Z,25.90
2019-02-23T15:55:58.472Z,21.60
2019-02-23T15:58:29.106Z,24.40
2019-02-23T16:00:59.650Z,30.83
2019-02-23T16:03:30.233Z,22.93
2019-02-23T16:06:00.762Z,24.70
2019-02-23T16:08:31.367Z,26.33
2019-02-23T16:11:01.960Z,24.87
2019-02-23T16:13:32.546Z,29.97
2019-02-23T16:16:03.054Z,29.03
2019-02-23T16:18:33.820Z,26.40
2019-02-23T16:21:04.553Z,30.00
2019-02-23T16:23:35.698Z,27.50
2019-02-23T16:26:06.551Z,30.33
2019-02-23T16:28:37.013Z,25.30
2019-02-23T16:31:07.639Z,28.13
2019-02-23T16:33:38.116Z,27.70
2019-02-23T16:36:08.766Z,28.97
2019-02-23T16:38:39.358Z,29.90
2019-02-23T16:41:10.005Z,26.23
2019-02-23T16:43:40.552Z,28.67
2019-02-23T16:46:11.293Z,28.47
2019-02-23T16:48:41.888Z,27.77
2019-02-23T16:51:12.450Z,30.37
2019-02-23T16:53:43.045Z,73.00
2019-02-23T16:56:13.667Z,50.60
2019-02-23T16:58:44.385Z,45.17
2019-02-23T17:01:15.018Z,44.83
2019-02-23T17:03:45.549Z,59.33
2019-02-23T17:06:17.532Z,51.60
2019-02-23T17:08:48.198Z,58.53
2019-02-23T17:11:18.816Z,41.20
2019-02-23T17:13:49.569Z,40.20
2019-02-23T17:16:21.671Z,37.27
2019-02-23T17:18:52.216Z,40.17
2019-02-23T17:21:22.896Z,42.67
2019-02-23T17:23:53.394Z,29.00
2019-02-23T17:26:25.106Z,30.83
2019-02-23T17:28:55.662Z,37.20
2019-02-23T17:31:26.357Z,32.07
2019-02-23T17:33:57.051Z,33.10
2019-02-23T17:36:27.710Z,41.70
2019-02-23T17:38:58.404Z,32.33
2019-02-23T17:41:29.033Z,43.47
2019-02-23T17:43:59.717Z,62.67
2019-02-23T17:46:30.611Z,74.10
2019-02-23T17:49:01.140Z,76.57
2019-02-23T17:51:31.696Z,79.40
2019-02-23T17:54:02.185Z,76.40
2019-02-23T17:56:32.676Z,88.47
2019-02-23T17:59:03.258Z,82.63
2019-02-23T18:01:33.831Z,78.63
2019-02-23T18:04:04.443Z,77.27
2019-02-23T18:06:34.964Z,76.73
2019-02-23T18:09:06.200Z,51.93
2019-02-23T18:11:38.355Z,62.60
2019-02-23T18:14:08.989Z,74.50
2019-02-23T18:16:39.441Z,78.33
2019-02-23T18:19:12.296Z,56.00
2019-02-23T18:21:42.897Z,63.50
2019-02-23T18:24:14.519Z,59.13
2019-02-23T18:26:45.097Z,63.53
2019-02-23T18:29:15.701Z,54.37
2019-02-23T18:31:46.379Z,56.40
2019-02-23T18:34:17.145Z,35.87
2019-02-23T18:36:47.776Z,49.07
2019-02-23T18:39:18.443Z,38.33
2019-02-23T18:41:49.012Z,48.20
2019-02-23T18:44:19.605Z,46.10
2019-02-23T18:46:51.229Z,35.30
2019-02-23T18:49:21.861Z,40.77
2019-02-23T18:51:52.545Z,45.80
2019-02-23T18:54:23.160Z,53.13
2019-02-23T18:56:53.850Z,70.63
2019-02-23T18:59:24.354Z,70.37
2019-02-23T19:01:54.986Z,76.97
2019-02-23T19:04:25.638Z,87.03
2019-02-23T19:06:56.529Z,105.07
2019-02-23T19:09:27.069Z,88.50
2019-02-23T19:11:57.736Z,87.60
2019-02-23T19:14:28.445Z,77.40
2019-02-23T19:16:59.224Z,109.07
2019-02-23T19:19:30.000Z,111.47
2019-02-23T19:22:00.697Z,141.97
2019-02-23T19:24:31.355Z,109.20
2019-02-23T19:27:01.962Z,99.67
2019-02-23T19:29:33.571Z,83.53
2019-02-23T19:32:04.281Z,60.97
2019-02-23T19:34:34.933Z,50.13
2019-02-23T19:37:05.598Z,53.03
2019-02-23T19:39:37.298Z,57.63
2019-02-23T19:42:07.935Z,53.03
2019-02-23T19:44:38.698Z,47.57
2019-02-23T19:47:13.329Z,39.37
2019-02-23T19:49:43.995Z,38.60
2019-02-23T19:52:18.773Z,43.70
2019-02-23T19:54:49.362Z,32.53
2019-02-23T19:57:19.969Z,37.00
2019-02-23T19:59:50.608Z,43.40
2019-02-23T20:02:22.161Z,41.50
2019-02-23T20:04:52.764Z,49.03
2019-02-23T20:07:23.381Z,44.33
2019-02-23T20:09:53.925Z,59.70
2019-02-23T20:12:24.427Z,47.93
2019-02-23T20:14:55.025Z,44.93
2019-02-23T20:17:25.561Z,45.50
2019-02-23T20:19:56.176Z,54.10
2019-02-23T20:22:26.699Z,47.03
2019-02-23T20:24:57.397Z,46.27
2019-02-23T20:27:27.939Z,48.77
2019-02-23T20:29:58.595Z,53.00
2019-02-23T20:32:29.106Z,52.07
2019-02-23T20:34:59.593Z,45.80
2019-02-23T20:37:30.181Z,42.40
2019-02-23T20:40:00.701Z,46.73
2019-02-23T20:42:31.796Z,46.40
2019-02-23T20:45:02.323Z,47.50
2019-02-23T20:47:33.483Z,51.53
2019-02-23T20:50:04.428Z,52.43
2019-02-23T20:52:35.818Z,52.03
2019-02-23T20:55:06.697Z,51.23
2019-02-23T20:57:37.477Z,52.83
2019-02-23T21:00:08.567Z,54.67
2019-02-23T21:02:40.803Z,52.97
2019-02-23T21:05:11.551Z,51.37
2019-02-23T21:07:42.208Z,52.03
2019-02-23T21:10:12.651Z,55.33
2019-02-23T21:12:43.248Z,57.77
2019-02-23T21:15:13.794Z,47.20
2019-02-23T21:17:44.431Z,56.40
2019-02-23T21:20:15.074Z,55.00
2019-02-23T21:22:46.025Z,54.80
2019-02-23T21:25:16.587Z,52.80
2019-02-23T21:27:48.233Z,53.93
2019-02-23T21:30:18.813Z,55.43
2019-02-23T21:32:49.409Z,57.13
2019-02-23T21:35:20.061Z,53.53
2019-02-23T21:37:50.553Z,57.17
2019-02-23T21:40:21.113Z,60.07
2019-02-23T21:42:51.635Z,90.73
2019-02-23T21:45:22.139Z,111.17
2019-02-23T21:47:52.745Z,108.00
2019-02-23T21:50:23.341Z,118.53
2019-02-23T21:52:53.912Z,71.93
2019-02-23T21:55:24.603Z,61.17
2019-02-23T21:57:55.280Z,74.17
2019-02-23T22:00:25.851Z,111.93
2019-02-23T22:02:56.421Z,126.47
2019-02-23T22:05:26.975Z,105.70
2019-02-23T22:07:57.545Z,92.07
2019-02-23T22:10:28.093Z,92.57
2019-02-23T22:12:58.753Z,88.77
2019-02-23T22:15:29.444Z,105.27
2019-02-23T22:17:59.949Z,93.23
2019-02-23T22:20:30.542Z,96.43
2019-02-23T22:23:02.074Z,106.60
2019-02-23T22:25:32.733Z,107.13
2019-02-23T22:28:03.351Z,101.23
2019-02-23T22:30:33.956Z,112.70
2019-02-23T22:33:04.424Z,106.63
2019-02-23T22:35:34.944Z,112.67
2019-02-23T22:38:05.505Z,98.87
2019-02-23T22:40:36.034Z,108.77
2019-02-23T22:43:06.590Z,116.40
2019-02-23T22:45:37.117Z,108.03
2019-02-23T22:48:07.697Z,101.33
2019-02-23T22:50:38.199Z,97.10
2019-02-23T22:53:08.679Z,100.70
2019-02-23T22:55:39.235Z,109.17
2019-02-23T22:58:09.759Z,105.77
2019-02-23T23:00:53.849Z,116.33
2019-02-23T23:03:25.418Z,133.17
2019-02-23T23:05:55.999Z,139.90
2019-02-23T23:08:26.536Z,178.33
2019-02-23T23:10:57.048Z,192.53
2019-02-23T23:13:27.631Z,194.97
2019-02-23T23:15:58.190Z,190.83
2019-02-23T23:18:28.667Z,182.60
2019-02-23T23:20:59.246Z,191.13
2019-02-23T23:23:29.929Z,217.93
2019-02-23T23:26:00.449Z,219.67
2019-02-23T23:28:31.033Z,249.67
2019-02-23T23:31:01.591Z,278.30
2019-02-23T23:33:32.087Z,323.07
2019-02-23T23:36:02.616Z,377.37
2019-02-23T23:38:33.123Z,404.37
2019-02-23T23:41:03.677Z,407.63
2019-02-23T23:43:34.161Z,416.47
2019-02-23T23:46:04.760Z,420.00
2019-02-23T23:48:35.243Z,429.27
2019-02-23T23:51:05.753Z,409.07
2019-02-23T23:53:36.235Z,347.70
2019-02-23T23:56:07.779Z,344.80
2019-02-23T23:58:38.283Z,357.37
